createdAt,value
2018-07-03T00:02:10.747Z,16.54
2018-07-03T00:04:38.775Z,16.41
2018-07-03T00:07:06.868Z,16.31
2018-07-03T00:09:34.923Z,16.27
2018-07-03T00:12:02.979Z,16.28
2018-07-03T00:14:31.019Z,16.26
2018-07-03T00:17:29.886Z,16.24
2018-07-03T00:19:57.932Z,16.20
2018-07-03T00:22:25.978Z,16.17
2018-07-03T00:24:54.044Z,16.15
2018-07-03T00:27:22.585Z,16.09
2018-07-03T00:29:50.672Z,16.07
2018-07-03T00:32:18.819Z,16.02
2018-07-03T00:34:46.979Z,16.00
2018-07-03T00:37:15.148Z,15.96
2018-07-03T00:39:43.649Z,15.94
2018-07-03T00:42:11.852Z,15.92
2018-07-03T00:44:39.936Z,15.87
2018-07-03T00:47:07.981Z,15.80
2018-07-03T00:49:36.037Z,15.80
2018-07-03T00:52:04.091Z,15.73
2018-07-03T00:54:32.174Z,15.70
2018-07-03T00:57:00.227Z,15.66
2018-07-03T00:59:28.254Z,15.61
2018-07-03T01:01:56.552Z,15.59
2018-07-03T01:04:24.568Z,15.57
2018-07-03T01:06:52.613Z,15.53
2018-07-03T01:09:20.656Z,15.49
2018-07-03T01:11:48.667Z,15.48
2018-07-03T01:14:17.000Z,15.46
2018-07-03T01:16:45.029Z,15.44
2018-07-03T01:19:13.056Z,15.43
2018-07-03T01:21:41.088Z,15.09
2018-07-03T01:24:09.099Z,15.25
2018-07-03T01:26:37.299Z,15.37
2018-07-03T01:29:05.393Z,15.34
2018-07-03T01:31:33.447Z,15.32
2018-07-03T01:34:01.508Z,15.23
2018-07-03T01:36:29.540Z,15.23
2018-07-03T01:38:57.596Z,15.19
2018-07-03T01:41:25.627Z,15.19
2018-07-03T01:43:54.143Z,15.16
2018-07-03T01:46:22.204Z,15.05
2018-07-03T01:48:50.227Z,15.03
2018-07-03T01:51:18.263Z,14.95
2018-07-03T01:53:46.300Z,14.93
2018-07-03T01:56:14.333Z,14.89
2018-07-03T01:58:42.367Z,14.89
2018-07-03T02:01:10.408Z,14.89
2018-07-03T02:03:38.432Z,14.90
2018-07-03T02:06:06.475Z,14.86
2018-07-03T02:08:34.527Z,14.76
2018-07-03T02:11:02.551Z,14.72
2018-07-03T02:13:30.585Z,14.74
2018-07-03T02:15:58.615Z,14.76
2018-07-03T02:18:26.657Z,14.75
2018-07-03T02:20:54.779Z,14.74
2018-07-03T02:23:22.823Z,14.57
2018-07-03T02:25:50.847Z,14.44
2018-07-03T02:28:18.892Z,14.42
2018-07-03T02:30:46.936Z,14.36
2018-07-03T02:33:14.993Z,14.35
2018-07-03T02:35:43.023Z,14.29
2018-07-03T02:38:11.073Z,14.29
2018-07-03T02:40:39.111Z,14.31
2018-07-03T02:43:07.148Z,14.30
2018-07-03T02:45:35.232Z,14.31
2018-07-03T02:48:03.332Z,14.32
2018-07-03T02:50:31.372Z,14.28
2018-07-03T02:52:59.529Z,14.23
2018-07-03T02:55:27.585Z,14.19
2018-07-03T02:57:55.616Z,14.09
2018-07-03T03:00:23.828Z,14.07
2018-07-03T03:02:51.883Z,14.03
2018-07-03T03:05:19.974Z,14.03
2018-07-03T03:07:48.133Z,14.04
2018-07-03T03:10:16.248Z,14.08
2018-07-03T03:12:44.352Z,14.09
2018-07-03T03:15:12.696Z,14.12
2018-07-03T03:17:40.824Z,14.14
2018-07-03T03:20:08.931Z,14.12
2018-07-03T03:22:37.040Z,14.08
2018-07-03T03:25:05.187Z,14.00
2018-07-03T03:27:33.231Z,13.95
2018-07-03T03:30:01.303Z,13.96
2018-07-03T03:32:29.365Z,13.96
2018-07-03T03:34:57.432Z,13.95
2018-07-03T03:37:25.488Z,13.95
2018-07-03T03:39:53.531Z,13.93
2018-07-03T03:42:21.719Z,13.93
2018-07-03T03:44:49.851Z,13.91
2018-07-03T03:47:17.972Z,13.89
2018-07-03T03:49:46.072Z,13.86
2018-07-03T03:52:14.225Z,13.88
2018-07-03T03:54:42.344Z,13.88
2018-07-03T03:57:10.508Z,13.93
2018-07-03T03:59:38.548Z,13.96
2018-07-03T04:02:06.585Z,13.99
2018-07-03T04:04:34.632Z,14.04
2018-07-03T04:07:02.687Z,14.08
2018-07-03T04:09:30.748Z,14.13
2018-07-03T04:11:58.787Z,14.22
2018-07-03T04:14:26.829Z,14.30
2018-07-03T04:16:54.911Z,14.35
2018-07-03T04:19:22.929Z,14.39
2018-07-03T04:21:50.963Z,14.51
2018-07-03T04:24:19.016Z,14.66
2018-07-03T04:26:47.054Z,14.90
2018-07-03T04:29:15.096Z,15.56
2018-07-03T04:31:43.143Z,16.80
2018-07-03T04:34:11.199Z,18.05
2018-07-03T04:36:39.245Z,19.27
2018-07-03T04:39:09.180Z,20.39
2018-07-03T04:41:37.314Z,21.50
2018-07-03T04:44:05.459Z,22.52
2018-07-03T04:46:33.533Z,23.45
2018-07-03T04:49:01.590Z,24.17
2018-07-03T04:51:30.259Z,25.01
2018-07-03T04:53:58.319Z,25.78
2018-07-03T04:56:26.443Z,26.48
2018-07-03T04:58:54.497Z,27.11
2018-07-03T05:01:22.559Z,27.51
2018-07-03T05:03:50.666Z,27.84
2018-07-03T05:06:18.749Z,28.24
2018-07-03T05:08:46.839Z,28.55
2018-07-03T05:11:14.944Z,28.81
2018-07-03T05:13:42.999Z,29.05
2018-07-03T05:16:11.041Z,28.58
2018-07-03T05:18:39.110Z,28.21
2018-07-03T05:21:07.151Z,28.22
2018-07-03T05:23:35.204Z,27.88
2018-07-03T05:26:03.274Z,28.06
2018-07-03T05:28:31.311Z,28.76
2018-07-03T05:30:59.443Z,29.17
2018-07-03T05:33:27.597Z,29.51
2018-07-03T05:35:55.654Z,29.85
2018-07-03T05:38:23.679Z,30.13
2018-07-03T05:40:51.727Z,30.38
2018-07-03T05:43:19.759Z,30.83
2018-07-03T05:45:47.815Z,30.90
2018-07-03T05:48:15.852Z,30.79
2018-07-03T05:50:44.044Z,31.03
2018-07-03T05:53:11.933Z,31.43
2018-07-03T05:55:40.010Z,31.70
2018-07-03T05:58:08.103Z,32.03
2018-07-03T06:00:36.175Z,32.22
2018-07-03T06:03:04.375Z,32.41
2018-07-03T06:05:32.494Z,32.49
2018-07-03T06:08:00.623Z,32.37
2018-07-03T06:10:28.752Z,32.67
2018-07-03T06:12:56.936Z,32.83
2018-07-03T06:15:25.020Z,32.76
2018-07-03T06:17:53.157Z,32.89
2018-07-03T06:20:21.215Z,32.91
2018-07-03T06:22:49.290Z,33.25
2018-07-03T06:25:17.329Z,33.35
2018-07-03T06:27:45.375Z,33.48
2018-07-03T06:30:13.422Z,33.29
2018-07-03T06:32:41.908Z,33.36
2018-07-03T06:35:10.017Z,33.49
2018-07-03T06:37:38.109Z,33.72
2018-07-03T06:40:06.107Z,33.65
2018-07-03T06:42:34.143Z,33.86
2018-07-03T06:45:02.309Z,34.00
2018-07-03T06:47:30.264Z,34.19
2018-07-03T06:49:58.323Z,33.93
2018-07-03T06:52:26.360Z,33.49
2018-07-03T06:54:54.630Z,33.20
2018-07-03T06:57:22.652Z,33.21
2018-07-03T06:59:50.683Z,32.95
2018-07-03T07:02:18.780Z,32.71
2018-07-03T07:04:46.816Z,32.77
2018-07-03T07:07:14.843Z,32.50
2018-07-03T07:09:42.974Z,32.84
2018-07-03T07:12:10.927Z,33.05
2018-07-03T07:14:39.027Z,32.95
2018-07-03T07:17:07.108Z,33.05
2018-07-03T07:19:36.011Z,32.94
2018-07-03T07:22:04.147Z,33.21
2018-07-03T07:24:32.200Z,33.52
2018-07-03T07:27:00.252Z,33.48
2018-07-03T07:29:28.392Z,33.11
2018-07-03T07:31:56.439Z,33.05
2018-07-03T07:34:24.560Z,33.26
2018-07-03T07:36:52.640Z,33.34
2018-07-03T07:39:20.763Z,33.60
2018-07-03T07:41:48.825Z,33.70
2018-07-03T07:44:16.883Z,33.57
2018-07-03T07:46:44.928Z,33.86
2018-07-03T07:49:13.019Z,33.97
2018-07-03T07:51:41.135Z,33.99
2018-07-03T07:54:09.335Z,34.14
2018-07-03T07:56:37.447Z,33.77
2018-07-03T07:59:05.602Z,33.78
2018-07-03T08:01:33.694Z,34.05
2018-07-03T08:04:01.764Z,34.37
2018-07-03T08:06:29.787Z,34.64
2018-07-03T08:08:57.877Z,34.69
2018-07-03T08:11:26.110Z,34.88
2018-07-03T08:13:54.211Z,34.69
2018-07-03T08:16:22.650Z,34.65
2018-07-03T08:18:50.811Z,34.23
2018-07-03T08:21:18.887Z,34.19
2018-07-03T08:23:46.943Z,34.11
2018-07-03T08:26:15.159Z,34.22
2018-07-03T08:28:43.565Z,33.94
2018-07-03T08:31:11.594Z,34.00
2018-07-03T08:33:39.618Z,34.21
2018-07-03T08:36:07.692Z,34.35
2018-07-03T08:38:35.723Z,34.25
2018-07-03T08:41:03.836Z,34.10
2018-07-03T08:43:31.929Z,34.21
2018-07-03T08:45:59.975Z,34.23
2018-07-03T08:48:28.195Z,33.65
2018-07-03T08:50:56.173Z,32.93
2018-07-03T08:53:24.232Z,33.17
2018-07-03T08:55:52.319Z,33.02
2018-07-03T08:58:20.378Z,32.11
2018-07-03T09:00:48.479Z,31.85
2018-07-03T09:03:16.664Z,31.74
2018-07-03T09:05:44.719Z,31.20
2018-07-03T09:08:12.782Z,31.04
2018-07-03T09:10:41.003Z,31.25
2018-07-03T09:13:09.056Z,31.55
2018-07-03T09:15:37.095Z,31.45
2018-07-03T09:18:05.209Z,30.82
2018-07-03T09:20:33.215Z,30.86
2018-07-03T09:23:01.247Z,30.90
2018-07-03T09:25:29.287Z,31.17
2018-07-03T09:27:57.355Z,31.62
2018-07-03T09:30:25.414Z,31.83
2018-07-03T09:32:53.432Z,32.19
2018-07-03T09:35:21.543Z,32.06
2018-07-03T09:37:49.612Z,32.28
2018-07-03T09:40:17.751Z,32.51
2018-07-03T09:42:45.867Z,33.00
2018-07-03T09:45:13.968Z,33.42
2018-07-03T09:47:42.045Z,33.60
2018-07-03T09:50:10.101Z,33.71
2018-07-03T09:52:38.136Z,34.14
2018-07-03T09:55:06.225Z,34.60
2018-07-03T09:57:34.254Z,34.98
2018-07-03T10:00:02.267Z,35.29
2018-07-03T10:02:30.460Z,35.35
2018-07-03T10:04:58.517Z,35.05
2018-07-03T10:07:26.528Z,34.92
2018-07-03T10:09:54.816Z,35.11
2018-07-03T10:12:22.851Z,34.79
2018-07-03T10:14:51.325Z,34.48
2018-07-03T10:17:19.457Z,34.05
2018-07-03T10:19:47.738Z,33.41
2018-07-03T10:22:15.931Z,33.08
2018-07-03T10:24:44.095Z,32.54
2018-07-03T10:27:12.230Z,32.12
2018-07-03T10:29:40.279Z,31.75
2018-07-03T10:32:08.331Z,31.29
2018-07-03T10:34:36.363Z,31.18
2018-07-03T10:37:04.392Z,31.03
2018-07-03T10:39:32.463Z,30.42
2018-07-03T10:42:00.564Z,30.08
2018-07-03T10:44:28.636Z,29.53
2018-07-03T10:46:57.296Z,29.28
2018-07-03T10:49:25.575Z,29.31
2018-07-03T10:51:53.780Z,29.20
2018-07-03T10:54:22.378Z,28.51
2018-07-03T10:56:50.602Z,28.79
2018-07-03T10:59:18.833Z,29.03
2018-07-03T11:01:47.037Z,29.10
2018-07-03T11:04:15.559Z,29.21
2018-07-03T11:06:43.772Z,29.11
2018-07-03T11:09:12.739Z,29.06
2018-07-03T11:11:41.052Z,29.16
2018-07-03T11:14:09.170Z,29.31
2018-07-03T11:16:37.151Z,29.37
2018-07-03T11:19:05.235Z,29.53
2018-07-03T11:21:33.283Z,29.64
2018-07-03T11:24:01.642Z,29.59
2018-07-03T11:26:29.669Z,29.44
2018-07-03T11:28:57.704Z,29.51
2018-07-03T11:31:25.767Z,29.49
2018-07-03T11:33:53.832Z,29.57
2018-07-03T11:36:21.849Z,29.87
2018-07-03T11:38:49.937Z,29.63
2018-07-03T11:41:17.955Z,29.56
2018-07-03T11:43:46.430Z,29.72
2018-07-03T11:46:14.682Z,29.76
2018-07-03T11:48:42.863Z,29.91
2018-07-03T11:51:11.122Z,30.13
2018-07-03T11:53:39.289Z,30.28
2018-07-03T11:56:07.335Z,30.40
2018-07-03T11:58:35.407Z,30.16
2018-07-03T12:01:03.436Z,29.87
2018-07-03T12:03:31.473Z,29.84
2018-07-03T12:05:59.532Z,29.99
2018-07-03T12:08:27.607Z,29.79
2018-07-03T12:10:55.668Z,30.02
2018-07-03T12:13:23.896Z,30.32
2018-07-03T12:15:52.111Z,30.27
2018-07-03T12:18:25.592Z,30.26
2018-07-03T12:20:53.636Z,30.03
2018-07-03T12:23:21.914Z,29.85
2018-07-03T12:25:50.250Z,29.85
2018-07-03T12:28:18.366Z,29.98
2018-07-03T12:30:46.510Z,29.74
2018-07-03T12:33:14.737Z,29.89
2018-07-03T12:35:42.895Z,30.01
2018-07-03T12:38:10.964Z,29.74
2018-07-03T12:40:39.015Z,29.53
2018-07-03T12:43:07.084Z,29.78
2018-07-03T12:45:35.212Z,29.67
2018-07-03T12:48:03.247Z,29.76
2018-07-03T12:50:31.299Z,29.62
2018-07-03T12:52:59.341Z,29.47
2018-07-03T12:55:27.400Z,29.20
2018-07-03T12:57:56.559Z,28.90
2018-07-03T13:00:24.604Z,29.05
2018-07-03T13:02:52.903Z,29.13
2018-07-03T13:05:21.085Z,29.22
2018-07-03T13:07:51.016Z,29.16
2018-07-03T13:10:19.067Z,28.91
2018-07-03T13:12:47.088Z,28.95
2018-07-03T13:15:15.103Z,28.55
2018-07-03T13:17:43.151Z,28.33
2018-07-03T13:20:11.175Z,28.66
2018-07-03T13:22:39.193Z,28.82
2018-07-03T13:25:09.681Z,28.87
2018-07-03T13:27:37.706Z,28.89
2018-07-03T13:30:06.332Z,28.98
2018-07-03T13:32:34.522Z,28.78
2018-07-03T13:35:02.557Z,28.78
2018-07-03T13:37:30.617Z,28.68
2018-07-03T13:39:58.708Z,28.56
2018-07-03T13:42:26.743Z,28.37
2018-07-03T13:44:54.815Z,28.30
2018-07-03T13:47:22.838Z,28.22
2018-07-03T13:49:51.079Z,28.23
2018-07-03T13:52:19.103Z,28.11
2018-07-03T13:54:47.147Z,28.21
2018-07-03T13:57:15.572Z,28.24
2018-07-03T13:59:43.609Z,28.29
2018-07-03T14:02:11.650Z,28.10
2018-07-03T14:04:39.719Z,28.24
2018-07-03T14:07:07.753Z,28.27
2018-07-03T14:09:35.880Z,28.35
2018-07-03T14:12:03.939Z,28.27
2018-07-03T14:14:31.977Z,28.32
2018-07-03T14:17:00.316Z,28.29
2018-07-03T14:19:28.388Z,28.18
2018-07-03T14:21:56.520Z,28.21
2018-07-03T14:24:24.521Z,28.37
2018-07-03T14:26:52.947Z,28.30
2018-07-03T14:29:20.979Z,28.29
2018-07-03T14:31:49.208Z,28.30
2018-07-03T14:34:17.268Z,28.33
2018-07-03T14:36:45.292Z,28.28
2018-07-03T14:39:14.421Z,28.38
2018-07-03T14:41:42.958Z,28.24
2018-07-03T14:44:11.203Z,28.27
2018-07-03T14:46:39.311Z,28.34
2018-07-03T14:49:07.365Z,28.36
2018-07-03T14:51:35.672Z,28.20
2018-07-03T14:54:03.729Z,28.31
2018-07-03T14:56:31.752Z,28.36
2018-07-03T14:58:59.800Z,28.43
2018-07-03T15:01:27.829Z,28.45
2018-07-03T15:03:55.859Z,28.43
2018-07-03T15:06:24.537Z,28.41
2018-07-03T15:08:53.280Z,28.47
2018-07-03T15:11:21.484Z,28.56
2018-07-03T15:13:49.528Z,28.49
2018-07-03T15:16:17.687Z,28.37
2018-07-03T15:18:51.248Z,28.43
2018-07-03T15:21:19.284Z,28.51
2018-07-03T15:23:47.436Z,28.41
2018-07-03T15:26:15.463Z,28.52
2018-07-03T15:28:43.522Z,28.57
2018-07-03T15:31:11.547Z,28.64
2018-07-03T15:33:39.604Z,28.73
2018-07-03T15:36:07.652Z,28.67
2018-07-03T15:38:35.724Z,28.53
2018-07-03T15:41:03.791Z,28.62
2018-07-03T15:43:31.811Z,28.61
2018-07-03T15:45:59.852Z,28.64
2018-07-03T15:48:27.887Z,28.58
2018-07-03T15:50:56.227Z,28.60
2018-07-03T15:53:24.390Z,28.51
2018-07-03T15:55:52.645Z,28.45
2018-07-03T15:58:21.009Z,28.50
2018-07-03T16:00:49.315Z,28.46
2018-07-03T16:05:33.131Z,28.55
2018-07-03T16:10:09.078Z,28.45
2018-07-03T16:12:37.189Z,28.55
2018-07-03T16:15:05.428Z,28.49
2018-07-03T16:17:33.487Z,28.67
2018-07-03T16:20:06.927Z,28.55
2018-07-03T16:22:34.980Z,28.56
2018-07-03T16:25:03.051Z,28.57
2018-07-03T16:27:31.087Z,28.66
2018-07-03T16:29:59.267Z,28.56
2018-07-03T16:32:27.372Z,28.51
2018-07-03T16:34:55.672Z,28.45
2018-07-03T16:37:23.899Z,28.38
2018-07-03T16:39:52.235Z,28.39
2018-07-03T16:42:20.255Z,28.27
2018-07-03T16:44:48.417Z,28.41
2018-07-03T16:47:16.733Z,28.35
2018-07-03T16:49:44.750Z,28.42
2018-07-03T16:52:13.084Z,28.46
2018-07-03T16:54:41.184Z,28.34
2018-07-03T16:57:09.205Z,28.43
2018-07-03T16:59:37.255Z,28.59
2018-07-03T17:02:05.312Z,28.63
2018-07-03T17:04:33.342Z,28.56
2018-07-03T17:07:01.398Z,28.44
2018-07-03T17:09:29.759Z,28.54
2018-07-03T17:11:57.819Z,28.60
2018-07-03T17:14:25.836Z,28.63
2018-07-03T17:16:53.864Z,28.63
2018-07-03T17:19:27.195Z,28.63
2018-07-03T17:21:55.247Z,28.66
2018-07-03T17:24:23.259Z,28.36
2018-07-03T17:26:51.361Z,28.22
2018-07-03T17:29:19.993Z,28.34
2018-07-03T17:31:48.051Z,28.33
2018-07-03T17:34:16.116Z,28.34
2018-07-03T17:36:44.179Z,28.37
2018-07-03T17:39:14.651Z,28.33
2018-07-03T17:41:54.627Z,28.30
2018-07-03T17:44:43.483Z,28.24
2018-07-03T17:47:11.588Z,28.27
2018-07-03T17:49:39.724Z,28.19
2018-07-03T17:52:07.772Z,28.01
2018-07-03T17:54:35.799Z,27.99
2018-07-03T17:57:03.855Z,27.99
2018-07-03T17:59:32.022Z,27.99
2018-07-03T18:02:00.048Z,27.90
2018-07-03T18:04:28.116Z,27.94
2018-07-03T18:06:56.185Z,27.89
2018-07-03T18:09:24.344Z,27.88
2018-07-03T18:11:52.384Z,27.85
2018-07-03T18:14:20.799Z,27.82
2018-07-03T18:16:49.169Z,27.81
2018-07-03T18:19:23.005Z,27.82
2018-07-03T18:21:51.247Z,27.76
2018-07-03T18:24:19.720Z,27.77
2018-07-03T18:26:47.833Z,27.69
2018-07-03T18:29:16.456Z,27.66
2018-07-03T18:31:45.731Z,27.63
2018-07-03T18:34:14.071Z,27.51
2018-07-03T18:36:42.472Z,27.47
2018-07-03T18:39:10.536Z,27.39
2018-07-03T18:41:38.788Z,27.37
2018-07-03T18:44:07.158Z,27.37
2018-07-03T18:46:35.448Z,27.31
2018-07-03T18:49:03.536Z,27.30
2018-07-03T18:51:31.568Z,27.22
2018-07-03T18:53:59.747Z,27.14
2018-07-03T18:56:27.793Z,27.07
2018-07-03T18:58:55.835Z,27.03
2018-07-03T19:01:23.946Z,26.97
2018-07-03T19:03:51.979Z,26.90
2018-07-03T19:06:20.028Z,26.82
2018-07-03T19:08:48.107Z,26.76
2018-07-03T19:11:16.183Z,26.69
2018-07-03T19:13:44.211Z,26.62
2018-07-03T19:16:12.265Z,26.57
2018-07-03T19:18:40.294Z,26.50
2018-07-03T19:21:08.357Z,26.42
2018-07-03T19:23:36.407Z,26.35
2018-07-03T19:26:04.480Z,26.26
2018-07-03T19:28:32.572Z,26.18
2018-07-03T19:31:00.624Z,26.12
2018-07-03T19:33:29.146Z,26.02
2018-07-03T19:35:57.270Z,25.85
2018-07-03T19:38:25.339Z,25.58
2018-07-03T19:40:53.379Z,25.45
2018-07-03T19:43:29.300Z,25.27
2018-07-03T19:45:58.383Z,25.05
2018-07-03T19:48:26.558Z,24.93
2018-07-03T19:50:54.982Z,24.80
2018-07-03T19:53:24.004Z,24.55
2018-07-03T19:55:53.945Z,24.32
2018-07-03T19:58:22.507Z,24.19
2018-07-03T20:00:52.022Z,23.99
2018-07-03T20:03:20.235Z,23.89
2018-07-03T20:05:49.113Z,23.82
2018-07-03T20:08:17.719Z,23.73
2018-07-03T20:10:46.532Z,23.65
2018-07-03T20:13:16.985Z,23.51
2018-07-03T20:15:46.390Z,23.49
2018-07-03T20:18:16.004Z,23.30
2018-07-03T20:20:44.845Z,23.09
2018-07-03T20:23:13.532Z,23.07
2018-07-03T20:25:41.949Z,23.03
2018-07-03T20:28:10.350Z,22.97
2018-07-03T20:30:38.466Z,22.86
2018-07-03T20:33:06.512Z,22.70
2018-07-03T20:35:34.544Z,22.68
2018-07-03T20:38:03.907Z,22.66
2018-07-03T20:41:07.587Z,22.57
2018-07-03T20:43:36.942Z,22.46
2018-07-03T20:46:05.933Z,22.33
2018-07-03T20:48:34.089Z,22.27
2018-07-03T20:51:03.461Z,22.22
2018-07-03T20:53:31.500Z,22.16
2018-07-03T20:55:59.591Z,22.10
2018-07-03T20:58:27.682Z,22.07
2018-07-03T21:00:55.792Z,22.04
2018-07-03T21:03:24.575Z,22.01
2018-07-03T21:05:53.449Z,21.94
2018-07-03T21:08:21.857Z,21.86
2018-07-03T21:10:50.365Z,21.84
2018-07-03T21:13:20.010Z,21.80
2018-07-03T21:15:48.205Z,21.73
2018-07-03T21:18:17.159Z,21.68
2018-07-03T21:20:45.690Z,21.64
2018-07-03T21:23:14.127Z,21.59
2018-07-03T21:25:42.440Z,21.50
2018-07-03T21:28:10.742Z,21.42
2018-07-03T21:30:38.855Z,21.40
2018-07-03T21:33:06.911Z,21.34
2018-07-03T21:35:34.987Z,21.28
2018-07-03T21:38:03.012Z,21.20
2018-07-03T21:40:31.078Z,21.14
2018-07-03T21:42:59.159Z,21.12
2018-07-03T21:45:27.239Z,21.06
2018-07-03T21:47:55.407Z,21.01
2018-07-03T21:50:23.776Z,20.86
2018-07-03T21:52:51.949Z,20.80
2018-07-03T21:55:20.106Z,20.71
2018-07-03T21:57:48.234Z,20.68
2018-07-03T22:00:16.893Z,20.62
2018-07-03T22:02:45.150Z,20.58
2018-07-03T22:05:13.369Z,20.49
2018-07-03T22:07:41.543Z,20.40
2018-07-03T22:10:09.647Z,20.38
2018-07-03T22:12:37.795Z,20.32
2018-07-03T22:15:05.839Z,20.26
2018-07-03T22:17:33.887Z,20.23
2018-07-03T22:20:01.952Z,20.21
2018-07-03T22:22:29.995Z,20.19
2018-07-03T22:24:58.348Z,20.15
2018-07-03T22:27:26.364Z,20.09
2018-07-03T22:29:54.392Z,20.03
2018-07-03T22:35:01.106Z,19.93
2018-07-03T22:37:29.136Z,19.87
2018-07-03T22:39:57.160Z,19.84
2018-07-03T22:42:25.196Z,19.80
2018-07-03T22:44:53.355Z,19.76
2018-07-03T22:47:21.476Z,19.69
2018-07-03T22:49:49.598Z,19.62
2018-07-03T22:52:17.755Z,19.55
2018-07-03T22:54:46.064Z,19.49
2018-07-03T22:57:14.554Z,19.46
2018-07-03T22:59:42.743Z,19.40
2018-07-03T23:02:11.586Z,19.36
2018-07-03T23:04:39.752Z,19.29
2018-07-03T23:07:07.918Z,19.22
2018-07-03T23:09:36.368Z,19.14
2018-07-03T23:12:04.644Z,19.06
2018-07-03T23:14:32.703Z,19.01
2018-07-03T23:17:00.737Z,18.96
2018-07-03T23:19:28.787Z,18.88
2018-07-03T23:21:57.116Z,18.82
2018-07-03T23:24:25.172Z,18.75
2018-07-03T23:26:53.193Z,18.69
2018-07-03T23:29:21.342Z,18.65
2018-07-03T23:31:49.486Z,18.61
2018-07-03T23:34:17.596Z,18.57
2018-07-03T23:36:45.707Z,18.48
2018-07-03T23:39:13.901Z,18.44
2018-07-03T23:41:42.076Z,18.44
2018-07-03T23:44:10.175Z,18.38
2018-07-03T23:46:49.860Z,18.32
2018-07-03T23:49:29.516Z,18.22
2018-07-03T23:52:09.207Z,18.13
2018-07-03T23:54:48.696Z,18.05
2018-07-03T23:57:28.291Z,18.00
